sensor_id;sensor_type;location;lat;lon;timestamp;P1;durP1;ratioP1;P2;durP2;ratioP2
13855;SDS011;6998;53.608;9.958;2022-07-23T00:00:05;4.82;;;1.50;;
13855;SDS011;6998;53.608;9.958;2022-07-23T00:02:33;3.95;;;1.48;;
13855;SDS011;6998;53.608;9.958;2022-07-23T00:05:00;2.78;;;1.40;;
13855;SDS011;6998;53.608;9.958;2022-07-23T00:07:27;3.13;;;1.58;;
13855;SDS011;6998;53.608;9.958;2022-07-23T00:09:54;2.58;;;1.30;;
13855;SDS011;6998;53.608;9.958;2022-07-23T00:12:22;3.40;;;1.40;;
13855;SDS011;6998;53.608;9.958;2022-07-23T00:14:48;5.28;;;1.20;;
13855;SDS011;6998;53.608;9.958;2022-07-23T00:17:15;4.35;;;1.40;;
13855;SDS011;6998;53.608;9.958;2022-07-23T00:19:42;3.33;;;1.50;;
13855;SDS011;6998;53.608;9.958;2022-07-23T00:22:09;3.05;;;1.10;;
13855;SDS011;6998;53.608;9.958;2022-07-23T00:24:35;2.53;;;1.10;;
13855;SDS011;6998;53.608;9.958;2022-07-23T00:27:02;3.30;;;1.40;;
13855;SDS011;6998;53.608;9.958;2022-07-23T00:29:30;2.20;;;1.20;;
13855;SDS011;6998;53.608;9.958;2022-07-23T00:31:57;5.43;;;1.60;;
13855;SDS011;6998;53.608;9.958;2022-07-23T00:34:24;3.13;;;1.15;;
13855;SDS011;6998;53.608;9.958;2022-07-23T00:36:50;3.35;;;1.38;;
13855;SDS011;6998;53.608;9.958;2022-07-23T00:39:18;2.50;;;1.30;;
13855;SDS011;6998;53.608;9.958;2022-07-23T00:41:46;2.20;;;1.20;;
13855;SDS011;6998;53.608;9.958;2022-07-23T00:44:17;3.03;;;1.33;;
13855;SDS011;6998;53.608;9.958;2022-07-23T00:46:47;2.35;;;1.13;;
13855;SDS011;6998;53.608;9.958;2022-07-23T00:49:17;2.20;;;1.25;;
13855;SDS011;6998;53.608;9.958;2022-07-23T00:51:44;1.75;;;1.10;;
13855;SDS011;6998;53.608;9.958;2022-07-23T00:54:11;3.42;;;1.40;;
13855;SDS011;6998;53.608;9.958;2022-07-23T00:56:38;2.58;;;1.30;;
13855;SDS011;6998;53.608;9.958;2022-07-23T00:59:07;2.40;;;1.20;;
13855;SDS011;6998;53.608;9.958;2022-07-23T01:01:34;3.20;;;1.30;;
13855;SDS011;6998;53.608;9.958;2022-07-23T01:04:02;3.13;;;1.38;;
13855;SDS011;6998;53.608;9.958;2022-07-23T01:06:29;2.75;;;1.30;;
13855;SDS011;6998;53.608;9.958;2022-07-23T01:08:59;3.58;;;1.20;;
13855;SDS011;6998;53.608;9.958;2022-07-23T01:11:25;2.58;;;1.20;;
13855;SDS011;6998;53.608;9.958;2022-07-23T01:13:52;3.35;;;1.20;;
13855;SDS011;6998;53.608;9.958;2022-07-23T01:16:19;2.75;;;1.17;;
13855;SDS011;6998;53.608;9.958;2022-07-23T01:18:46;2.25;;;1.10;;
13855;SDS011;6998;53.608;9.958;2022-07-23T01:21:14;2.95;;;1.33;;
13855;SDS011;6998;53.608;9.958;2022-07-23T01:23:46;4.15;;;1.13;;
13855;SDS011;6998;53.608;9.958;2022-07-23T01:26:13;4.85;;;1.50;;
13855;SDS011;6998;53.608;9.958;2022-07-23T01:28:42;1.83;;;1.15;;
13855;SDS011;6998;53.608;9.958;2022-07-23T01:31:09;3.92;;;1.50;;
13855;SDS011;6998;53.608;9.958;2022-07-23T01:33:35;2.22;;;1.27;;
13855;SDS011;6998;53.608;9.958;2022-07-23T01:36:02;6.05;;;1.70;;
13855;SDS011;6998;53.608;9.958;2022-07-23T01:38:29;2.85;;;1.20;;
13855;SDS011;6998;53.608;9.958;2022-07-23T01:40:57;2.60;;;1.27;;
13855;SDS011;6998;53.608;9.958;2022-07-23T01:43:24;4.65;;;1.30;;
13855;SDS011;6998;53.608;9.958;2022-07-23T01:45:50;2.55;;;1.20;;
13855;SDS011;6998;53.608;9.958;2022-07-23T01:48:17;2.63;;;1.30;;
13855;SDS011;6998;53.608;9.958;2022-07-23T01:50:45;4.20;;;1.15;;
13855;SDS011;6998;53.608;9.958;2022-07-23T01:53:12;2.75;;;1.30;;
13855;SDS011;6998;53.608;9.958;2022-07-23T01:55:39;7.18;;;1.30;;
13855;SDS011;6998;53.608;9.958;2022-07-23T01:58:07;6.20;;;1.58;;
13855;SDS011;6998;53.608;9.958;2022-07-23T02:00:34;1.80;;;1.05;;
13855;SDS011;6998;53.608;9.958;2022-07-23T02:03:01;4.80;;;1.40;;
13855;SDS011;6998;53.608;9.958;2022-07-23T02:05:28;3.25;;;1.30;;
13855;SDS011;6998;53.608;9.958;2022-07-23T02:07:56;2.65;;;1.17;;
13855;SDS011;6998;53.608;9.958;2022-07-23T02:10:23;3.53;;;1.10;;
13855;SDS011;6998;53.608;9.958;2022-07-23T02:12:50;4.95;;;1.75;;
13855;SDS011;6998;53.608;9.958;2022-07-23T02:15:18;3.38;;;1.27;;
13855;SDS011;6998;53.608;9.958;2022-07-23T02:17:45;2.97;;;1.25;;
13855;SDS011;6998;53.608;9.958;2022-07-23T02:20:11;5.45;;;1.48;;
13855;SDS011;6998;53.608;9.958;2022-07-23T02:22:39;3.50;;;1.30;;
13855;SDS011;6998;53.608;9.958;2022-07-23T02:25:06;3.30;;;1.42;;
13855;SDS011;6998;53.608;9.958;2022-07-23T02:27:34;3.00;;;1.35;;
13855;SDS011;6998;53.608;9.958;2022-07-23T02:30:02;3.08;;;1.27;;
13855;SDS011;6998;53.608;9.958;2022-07-23T02:32:30;1.98;;;1.30;;
13855;SDS011;6998;53.608;9.958;2022-07-23T02:34:57;3.78;;;1.50;;
13855;SDS011;6998;53.608;9.958;2022-07-23T02:37:24;2.10;;;1.23;;
13855;SDS011;6998;53.608;9.958;2022-07-23T02:39:51;4.82;;;1.30;;
13855;SDS011;6998;53.608;9.958;2022-07-23T02:42:17;4.93;;;1.30;;
13855;SDS011;6998;53.608;9.958;2022-07-23T02:44:44;4.78;;;1.38;;
13855;SDS011;6998;53.608;9.958;2022-07-23T02:47:11;2.03;;;1.25;;
13855;SDS011;6998;53.608;9.958;2022-07-23T02:49:39;2.63;;;1.10;;
13855;SDS011;6998;53.608;9.958;2022-07-23T02:52:06;2.08;;;1.10;;
13855;SDS011;6998;53.608;9.958;2022-07-23T02:54:35;2.35;;;1.35;;
13855;SDS011;6998;53.608;9.958;2022-07-23T02:57:02;2.30;;;1.38;;
13855;SDS011;6998;53.608;9.958;2022-07-23T02:59:28;2.72;;;1.17;;
13855;SDS011;6998;53.608;9.958;2022-07-23T03:01:55;2.90;;;1.45;;
13855;SDS011;6998;53.608;9.958;2022-07-23T03:04:22;2.22;;;1.35;;
13855;SDS011;6998;53.608;9.958;2022-07-23T03:06:50;2.85;;;1.30;;
13855;SDS011;6998;53.608;9.958;2022-07-23T03:09:17;3.63;;;1.30;;
13855;SDS011;6998;53.608;9.958;2022-07-23T03:11:43;2.67;;;1.40;;
13855;SDS011;6998;53.608;9.958;2022-07-23T03:14:10;1.88;;;1.40;;
13855;SDS011;6998;53.608;9.958;2022-07-23T03:16:38;3.95;;;1.50;;
13855;SDS011;6998;53.608;9.958;2022-07-23T03:19:05;2.97;;;1.33;;
13855;SDS011;6998;53.608;9.958;2022-07-23T03:21:31;3.15;;;1.40;;
13855;SDS011;6998;53.608;9.958;2022-07-23T03:24:00;2.72;;;1.25;;
13855;SDS011;6998;53.608;9.958;2022-07-23T03:26:27;4.07;;;1.50;;
13855;SDS011;6998;53.608;9.958;2022-07-23T03:28:54;2.88;;;1.40;;
13855;SDS011;6998;53.608;9.958;2022-07-23T03:31:20;2.55;;;1.38;;
13855;SDS011;6998;53.608;9.958;2022-07-23T03:33:47;3.25;;;1.48;;
13855;SDS011;6998;53.608;9.958;2022-07-23T03:36:14;2.53;;;1.45;;
13855;SDS011;6998;53.608;9.958;2022-07-23T03:38:40;4.22;;;1.55;;
13855;SDS011;6998;53.608;9.958;2022-07-23T03:41:08;1.58;;;1.20;;
13855;SDS011;6998;53.608;9.958;2022-07-23T03:43:35;2.10;;;1.30;;
13855;SDS011;6998;53.608;9.958;2022-07-23T03:46:02;4.10;;;1.35;;
13855;SDS011;6998;53.608;9.958;2022-07-23T03:48:28;4.63;;;1.30;;
13855;SDS011;6998;53.608;9.958;2022-07-23T03:50:55;1.33;;;1.10;;
13855;SDS011;6998;53.608;9.958;2022-07-23T03:53:22;2.80;;;1.65;;
13855;SDS011;6998;53.608;9.958;2022-07-23T03:55:49;2.78;;;1.13;;
13855;SDS011;6998;53.608;9.958;2022-07-23T03:58:17;2.97;;;1.50;;
13855;SDS011;6998;53.608;9.958;2022-07-23T04:00:43;2.05;;;1.13;;
13855;SDS011;6998;53.608;9.958;2022-07-23T04:03:10;1.80;;;1.30;;
13855;SDS011;6998;53.608;9.958;2022-07-23T04:05:37;2.50;;;1.30;;
13855;SDS011;6998;53.608;9.958;2022-07-23T04:08:04;3.65;;;1.60;;
13855;SDS011;6998;53.608;9.958;2022-07-23T04:10:31;2.63;;;1.38;;
13855;SDS011;6998;53.608;9.958;2022-07-23T04:12:57;4.82;;;1.45;;
13855;SDS011;6998;53.608;9.958;2022-07-23T04:15:25;3.17;;;1.40;;
13855;SDS011;6998;53.608;9.958;2022-07-23T04:17:52;2.60;;;1.40;;
13855;SDS011;6998;53.608;9.958;2022-07-23T04:20:19;3.10;;;1.60;;
13855;SDS011;6998;53.608;9.958;2022-07-23T04:22:46;1.98;;;1.38;;
13855;SDS011;6998;53.608;9.958;2022-07-23T04:25:12;2.88;;;1.55;;
13855;SDS011;6998;53.608;9.958;2022-07-23T04:27:41;4.97;;;1.70;;
13855;SDS011;6998;53.608;9.958;2022-07-23T04:30:08;5.40;;;1.80;;
13855;SDS011;6998;53.608;9.958;2022-07-23T04:32:36;3.55;;;1.50;;
13855;SDS011;6998;53.608;9.958;2022-07-23T04:35:03;4.38;;;1.55;;
13855;SDS011;6998;53.608;9.958;2022-07-23T04:37:30;6.45;;;1.70;;
13855;SDS011;6998;53.608;9.958;2022-07-23T04:39:57;3.33;;;1.60;;
13855;SDS011;6998;53.608;9.958;2022-07-23T04:42:24;2.15;;;1.50;;
13855;SDS011;6998;53.608;9.958;2022-07-23T04:44:50;4.13;;;1.60;;
13855;SDS011;6998;53.608;9.958;2022-07-23T04:47:17;4.10;;;1.60;;
13855;SDS011;6998;53.608;9.958;2022-07-23T04:49:45;4.05;;;2.17;;
13855;SDS011;6998;53.608;9.958;2022-07-23T04:52:12;4.05;;;2.10;;
13855;SDS011;6998;53.608;9.958;2022-07-23T04:54:40;4.43;;;2.15;;
13855;SDS011;6998;53.608;9.958;2022-07-23T04:57:07;4.78;;;1.80;;
13855;SDS011;6998;53.608;9.958;2022-07-23T04:59:33;3.97;;;1.92;;
13855;SDS011;6998;53.608;9.958;2022-07-23T05:02:00;2.80;;;1.90;;
13855;SDS011;6998;53.608;9.958;2022-07-23T05:04:27;2.47;;;1.60;;
13855;SDS011;6998;53.608;9.958;2022-07-23T05:06:55;2.25;;;2.00;;
13855;SDS011;6998;53.608;9.958;2022-07-23T05:09:21;1.92;;;1.55;;
13855;SDS011;6998;53.608;9.958;2022-07-23T05:11:48;2.20;;;1.58;;
13855;SDS011;6998;53.608;9.958;2022-07-23T05:14:15;2.72;;;1.38;;
13855;SDS011;6998;53.608;9.958;2022-07-23T05:16:42;2.13;;;1.40;;
13855;SDS011;6998;53.608;9.958;2022-07-23T05:19:08;2.55;;;1.20;;
13855;SDS011;6998;53.608;9.958;2022-07-23T05:21:35;2.75;;;1.00;;
13855;SDS011;6998;53.608;9.958;2022-07-23T05:24:04;3.05;;;1.23;;
13855;SDS011;6998;53.608;9.958;2022-07-23T05:26:31;2.65;;;1.02;;
13855;SDS011;6998;53.608;9.958;2022-07-23T05:28:58;2.50;;;1.20;;
13855;SDS011;6998;53.608;9.958;2022-07-23T05:31:24;4.40;;;1.10;;
13855;SDS011;6998;53.608;9.958;2022-07-23T05:33:51;2.58;;;1.15;;
13855;SDS011;6998;53.608;9.958;2022-07-23T05:36:18;5.22;;;1.30;;
13855;SDS011;6998;53.608;9.958;2022-07-23T05:38:44;2.38;;;1.10;;
13855;SDS011;6998;53.608;9.958;2022-07-23T05:41:13;2.22;;;1.00;;
13855;SDS011;6998;53.608;9.958;2022-07-23T05:43:39;3.08;;;1.00;;
13855;SDS011;6998;53.608;9.958;2022-07-23T05:46:06;1.52;;;1.20;;
13855;SDS011;6998;53.608;9.958;2022-07-23T05:48:33;2.33;;;1.10;;
13855;SDS011;6998;53.608;9.958;2022-07-23T05:50:59;0.93;;;0.82;;
13855;SDS011;6998;53.608;9.958;2022-07-23T05:53:28;1.98;;;1.00;;
13855;SDS011;6998;53.608;9.958;2022-07-23T05:55:54;3.25;;;1.10;;
13855;SDS011;6998;53.608;9.958;2022-07-23T05:58:22;2.28;;;1.00;;
13855;SDS011;6998;53.608;9.958;2022-07-23T06:00:49;3.28;;;0.90;;
13855;SDS011;6998;53.608;9.958;2022-07-23T06:03:16;2.17;;;1.05;;
13855;SDS011;6998;53.608;9.958;2022-07-23T06:05:43;1.33;;;0.88;;
13855;SDS011;6998;53.608;9.958;2022-07-23T06:08:09;1.88;;;1.00;;
13855;SDS011;6998;53.608;9.958;2022-07-23T06:10:36;2.13;;;1.23;;
13855;SDS011;6998;53.608;9.958;2022-07-23T06:13:03;1.60;;;0.98;;
13855;SDS011;6998;53.608;9.958;2022-07-23T06:15:31;3.22;;;1.23;;
13855;SDS011;6998;53.608;9.958;2022-07-23T06:17:57;3.25;;;1.17;;
13855;SDS011;6998;53.608;9.958;2022-07-23T06:20:24;3.03;;;1.30;;
13855;SDS011;6998;53.608;9.958;2022-07-23T06:22:51;2.55;;;1.40;;
13855;SDS011;6998;53.608;9.958;2022-07-23T06:25:17;2.17;;;1.30;;
13855;SDS011;6998;53.608;9.958;2022-07-23T06:27:45;4.32;;;1.45;;
13855;SDS011;6998;53.608;9.958;2022-07-23T06:30:12;3.03;;;1.10;;
13855;SDS011;6998;53.608;9.958;2022-07-23T06:32:42;2.78;;;1.10;;
13855;SDS011;6998;53.608;9.958;2022-07-23T06:35:09;1.95;;;1.10;;
13855;SDS011;6998;53.608;9.958;2022-07-23T06:37:35;2.65;;;1.08;;
13855;SDS011;6998;53.608;9.958;2022-07-23T06:40:02;1.95;;;0.90;;
13855;SDS011;6998;53.608;9.958;2022-07-23T06:42:30;3.88;;;1.20;;
13855;SDS011;6998;53.608;9.958;2022-07-23T06:44:56;2.03;;;1.10;;
13855;SDS011;6998;53.608;9.958;2022-07-23T06:47:23;1.92;;;1.10;;
13855;SDS011;6998;53.608;9.958;2022-07-23T06:49:51;2.13;;;1.05;;
13855;SDS011;6998;53.608;9.958;2022-07-23T06:52:18;2.20;;;1.00;;
13855;SDS011;6998;53.608;9.958;2022-07-23T06:54:44;2.45;;;1.00;;
13855;SDS011;6998;53.608;9.958;2022-07-23T06:57:11;1.45;;;1.00;;
13855;SDS011;6998;53.608;9.958;2022-07-23T06:59:38;1.83;;;1.10;;
13855;SDS011;6998;53.608;9.958;2022-07-23T07:02:05;1.58;;;1.02;;
13855;SDS011;6998;53.608;9.958;2022-07-23T07:04:32;1.92;;;1.10;;
13855;SDS011;6998;53.608;9.958;2022-07-23T07:07:00;1.92;;;1.05;;
13855;SDS011;6998;53.608;9.958;2022-07-23T07:09:27;3.17;;;1.20;;
13855;SDS011;6998;53.608;9.958;2022-07-23T07:11:53;5.28;;;1.38;;
13855;SDS011;6998;53.608;9.958;2022-07-23T07:14:21;1.90;;;1.40;;
13855;SDS011;6998;53.608;9.958;2022-07-23T07:16:48;1.67;;;1.00;;
13855;SDS011;6998;53.608;9.958;2022-07-23T07:19:15;4.03;;;1.30;;
13855;SDS011;6998;53.608;9.958;2022-07-23T07:21:42;4.13;;;1.08;;
13855;SDS011;6998;53.608;9.958;2022-07-23T07:24:10;3.53;;;1.40;;
13855;SDS011;6998;53.608;9.958;2022-07-23T07:26:37;1.75;;;0.80;;
13855;SDS011;6998;53.608;9.958;2022-07-23T07:29:04;3.13;;;1.00;;
13855;SDS011;6998;53.608;9.958;2022-07-23T07:31:31;2.80;;;0.90;;
13855;SDS011;6998;53.608;9.958;2022-07-23T07:33:58;1.10;;;0.88;;
13855;SDS011;6998;53.608;9.958;2022-07-23T07:36:25;4.22;;;1.05;;
13855;SDS011;6998;53.608;9.958;2022-07-23T07:38:52;2.08;;;1.00;;
13855;SDS011;6998;53.608;9.958;2022-07-23T07:41:20;3.72;;;1.15;;
13855;SDS011;6998;53.608;9.958;2022-07-23T07:43:49;1.85;;;1.10;;
13855;SDS011;6998;53.608;9.958;2022-07-23T07:46:15;1.55;;;1.00;;
13855;SDS011;6998;53.608;9.958;2022-07-23T07:48:42;1.65;;;0.90;;
13855;SDS011;6998;53.608;9.958;2022-07-23T07:51:09;2.42;;;0.98;;
13855;SDS011;6998;53.608;9.958;2022-07-23T07:53:36;1.95;;;0.90;;
13855;SDS011;6998;53.608;9.958;2022-07-23T07:56:03;1.65;;;0.90;;
13855;SDS011;6998;53.608;9.958;2022-07-23T07:58:31;1.70;;;0.90;;
13855;SDS011;6998;53.608;9.958;2022-07-23T08:00:58;2.45;;;0.95;;
13855;SDS011;6998;53.608;9.958;2022-07-23T08:03:25;1.35;;;0.77;;
13855;SDS011;6998;53.608;9.958;2022-07-23T08:05:52;1.65;;;0.77;;
13855;SDS011;6998;53.608;9.958;2022-07-23T08:08:19;1.63;;;0.70;;
13855;SDS011;6998;53.608;9.958;2022-07-23T08:10:45;2.05;;;1.02;;
13855;SDS011;6998;53.608;9.958;2022-07-23T08:13:12;1.98;;;1.00;;
13855;SDS011;6998;53.608;9.958;2022-07-23T08:15:42;2.05;;;0.80;;
13855;SDS011;6998;53.608;9.958;2022-07-23T08:18:09;1.05;;;0.50;;
13855;SDS011;6998;53.608;9.958;2022-07-23T08:20:36;2.25;;;0.75;;
13855;SDS011;6998;53.608;9.958;2022-07-23T08:23:04;1.90;;;0.80;;
13855;SDS011;6998;53.608;9.958;2022-07-23T08:25:32;1.13;;;1.00;;
13855;SDS011;6998;53.608;9.958;2022-07-23T08:28:00;3.28;;;0.98;;
13855;SDS011;6998;53.608;9.958;2022-07-23T08:30:28;1.50;;;0.90;;
13855;SDS011;6998;53.608;9.958;2022-07-23T08:32:58;1.45;;;0.60;;
13855;SDS011;6998;53.608;9.958;2022-07-23T08:35:27;2.35;;;0.70;;
13855;SDS011;6998;53.608;9.958;2022-07-23T08:37:55;1.20;;;0.70;;
13855;SDS011;6998;53.608;9.958;2022-07-23T08:40:23;2.38;;;0.75;;
13855;SDS011;6998;53.608;9.958;2022-07-23T08:42:52;2.15;;;0.75;;
13855;SDS011;6998;53.608;9.958;2022-07-23T08:45:20;0.75;;;0.60;;
13855;SDS011;6998;53.608;9.958;2022-07-23T08:47:48;2.33;;;0.68;;
13855;SDS011;6998;53.608;9.958;2022-07-23T08:50:18;0.80;;;0.60;;
13855;SDS011;6998;53.608;9.958;2022-07-23T08:52:45;1.85;;;0.60;;
13855;SDS011;6998;53.608;9.958;2022-07-23T08:55:15;1.08;;;0.70;;
13855;SDS011;6998;53.608;9.958;2022-07-23T08:57:42;1.80;;;0.68;;
13855;SDS011;6998;53.608;9.958;2022-07-23T09:00:11;1.33;;;0.80;;
13855;SDS011;6998;53.608;9.958;2022-07-23T09:02:40;0.82;;;0.60;;
13855;SDS011;6998;53.608;9.958;2022-07-23T09:05:09;1.50;;;0.80;;
13855;SDS011;6998;53.608;9.958;2022-07-23T09:10:52;2.55;;;0.77;;
13855;SDS011;6998;53.608;9.958;2022-07-23T09:13:25;0.70;;;0.63;;
13855;SDS011;6998;53.608;9.958;2022-07-23T09:15:59;1.77;;;0.70;;
13855;SDS011;6998;53.608;9.958;2022-07-23T09:18:28;1.92;;;0.85;;
13855;SDS011;6998;53.608;9.958;2022-07-23T09:21:05;1.17;;;0.80;;
13855;SDS011;6998;53.608;9.958;2022-07-23T09:23:37;0.85;;;0.60;;
13855;SDS011;6998;53.608;9.958;2022-07-23T09:26:16;1.70;;;0.77;;
13855;SDS011;6998;53.608;9.958;2022-07-23T09:28:52;1.67;;;0.80;;
13855;SDS011;6998;53.608;9.958;2022-07-23T09:31:20;3.25;;;0.80;;
13855;SDS011;6998;53.608;9.958;2022-07-23T09:33:48;1.10;;;0.57;;
13855;SDS011;6998;53.608;9.958;2022-07-23T09:36:15;1.42;;;0.68;;
13855;SDS011;6998;53.608;9.958;2022-07-23T09:38:54;1.90;;;0.70;;
13855;SDS011;6998;53.608;9.958;2022-07-23T09:41:21;1.23;;;0.80;;
13855;SDS011;6998;53.608;9.958;2022-07-23T09:43:54;1.60;;;0.82;;
13855;SDS011;6998;53.608;9.958;2022-07-23T09:46:22;1.38;;;0.73;;
13855;SDS011;6998;53.608;9.958;2022-07-23T09:48:49;2.28;;;0.80;;
13855;SDS011;6998;53.608;9.958;2022-07-23T09:51:17;2.38;;;1.00;;
13855;SDS011;6998;53.608;9.958;2022-07-23T09:53:47;1.02;;;0.90;;
13855;SDS011;6998;53.608;9.958;2022-07-23T09:56:15;2.45;;;0.90;;
13855;SDS011;6998;53.608;9.958;2022-07-23T09:58:43;1.08;;;0.80;;
13855;SDS011;6998;53.608;9.958;2022-07-23T10:01:15;2.55;;;0.70;;
13855;SDS011;6998;53.608;9.958;2022-07-23T10:03:42;1.63;;;0.93;;
13855;SDS011;6998;53.608;9.958;2022-07-23T10:06:09;2.55;;;0.90;;
13855;SDS011;6998;53.608;9.958;2022-07-23T10:08:39;1.45;;;0.77;;
13855;SDS011;6998;53.608;9.958;2022-07-23T10:11:07;1.95;;;0.80;;
13855;SDS011;6998;53.608;9.958;2022-07-23T10:13:38;0.80;;;0.70;;
13855;SDS011;6998;53.608;9.958;2022-07-23T10:16:17;1.20;;;1.00;;
13855;SDS011;6998;53.608;9.958;2022-07-23T10:18:44;2.13;;;0.70;;
13855;SDS011;6998;53.608;9.958;2022-07-23T10:21:16;1.10;;;0.88;;
13855;SDS011;6998;53.608;9.958;2022-07-23T10:23:58;0.90;;;0.80;;
13855;SDS011;6998;53.608;9.958;2022-07-23T10:26:41;2.70;;;0.93;;
13855;SDS011;6998;53.608;9.958;2022-07-23T10:29:21;0.90;;;0.68;;
13855;SDS011;6998;53.608;9.958;2022-07-23T10:32:00;1.02;;;0.50;;
13855;SDS011;6998;53.608;9.958;2022-07-23T10:34:36;0.77;;;0.77;;
13855;SDS011;6998;53.608;9.958;2022-07-23T10:37:11;2.28;;;0.70;;
13855;SDS011;6998;53.608;9.958;2022-07-23T10:39:43;2.05;;;0.90;;
13855;SDS011;6998;53.608;9.958;2022-07-23T10:42:10;1.17;;;0.65;;
13855;SDS011;6998;53.608;9.958;2022-07-23T10:44:40;1.60;;;0.80;;
13855;SDS011;6998;53.608;9.958;2022-07-23T10:47:09;1.45;;;0.70;;
13855;SDS011;6998;53.608;9.958;2022-07-23T10:49:46;1.38;;;0.70;;
13855;SDS011;6998;53.608;9.958;2022-07-23T10:52:23;0.60;;;0.57;;
13855;SDS011;6998;53.608;9.958;2022-07-23T10:54:52;1.52;;;0.70;;
13855;SDS011;6998;53.608;9.958;2022-07-23T10:57:20;1.33;;;0.80;;
13855;SDS011;6998;53.608;9.958;2022-07-23T11:02:37;2.67;;;0.80;;
13855;SDS011;6998;53.608;9.958;2022-07-23T11:05:06;2.65;;;0.80;;
13855;SDS011;6998;53.608;9.958;2022-07-23T11:07:34;3.08;;;0.77;;
13855;SDS011;6998;53.608;9.958;2022-07-23T11:10:01;1.60;;;0.75;;
13855;SDS011;6998;53.608;9.958;2022-07-23T11:12:32;0.60;;;0.50;;
13855;SDS011;6998;53.608;9.958;2022-07-23T11:15:03;1.35;;;0.80;;
13855;SDS011;6998;53.608;9.958;2022-07-23T11:17:34;1.70;;;0.80;;
13855;SDS011;6998;53.608;9.958;2022-07-23T11:20:18;1.65;;;0.70;;
13855;SDS011;6998;53.608;9.958;2022-07-23T11:22:48;1.25;;;0.68;;
13855;SDS011;6998;53.608;9.958;2022-07-23T11:25:34;2.20;;;0.70;;
13855;SDS011;6998;53.608;9.958;2022-07-23T11:28:08;1.15;;;0.57;;
13855;SDS011;6998;53.608;9.958;2022-07-23T11:30:43;0.77;;;0.57;;
13855;SDS011;6998;53.608;9.958;2022-07-23T11:33:19;1.90;;;0.70;;
13855;SDS011;6998;53.608;9.958;2022-07-23T11:35:48;1.77;;;0.70;;
13855;SDS011;6998;53.608;9.958;2022-07-23T11:38:25;1.52;;;0.70;;
13855;SDS011;6998;53.608;9.958;2022-07-23T11:40:52;3.22;;;0.80;;
13855;SDS011;6998;53.608;9.958;2022-07-23T11:43:22;2.17;;;0.80;;
13855;SDS011;6998;53.608;9.958;2022-07-23T11:45:50;1.45;;;0.68;;
13855;SDS011;6998;53.608;9.958;2022-07-23T11:48:21;2.45;;;0.73;;
13855;SDS011;6998;53.608;9.958;2022-07-23T11:50:49;2.85;;;1.10;;
13855;SDS011;6998;53.608;9.958;2022-07-23T11:53:21;3.75;;;0.85;;
13855;SDS011;6998;53.608;9.958;2022-07-23T11:55:48;2.75;;;0.68;;
13855;SDS011;6998;53.608;9.958;2022-07-23T11:58:16;2.55;;;0.90;;
13855;SDS011;6998;53.608;9.958;2022-07-23T12:00:43;3.55;;;0.98;;
13855;SDS011;6998;53.608;9.958;2022-07-23T12:03:09;3.67;;;1.15;;
13855;SDS011;6998;53.608;9.958;2022-07-23T12:05:38;1.95;;;1.00;;
13855;SDS011;6998;53.608;9.958;2022-07-23T12:08:05;4.05;;;1.10;;
13855;SDS011;6998;53.608;9.958;2022-07-23T12:10:34;4.35;;;1.40;;
13855;SDS011;6998;53.608;9.958;2022-07-23T12:13:02;1.58;;;0.73;;
13855;SDS011;6998;53.608;9.958;2022-07-23T12:15:32;2.63;;;0.95;;
13855;SDS011;6998;53.608;9.958;2022-07-23T12:18:02;2.22;;;1.13;;
13855;SDS011;6998;53.608;9.958;2022-07-23T12:20:31;2.97;;;1.05;;
13855;SDS011;6998;53.608;9.958;2022-07-23T12:23:02;2.67;;;0.98;;
13855;SDS011;6998;53.608;9.958;2022-07-23T12:25:30;1.10;;;0.85;;
13855;SDS011;6998;53.608;9.958;2022-07-23T12:27:59;5.47;;;1.10;;
13855;SDS011;6998;53.608;9.958;2022-07-23T12:30:30;1.45;;;0.60;;
13855;SDS011;6998;53.608;9.958;2022-07-23T12:32:58;1.20;;;0.88;;
13855;SDS011;6998;53.608;9.958;2022-07-23T12:35:30;2.22;;;0.90;;
13855;SDS011;6998;53.608;9.958;2022-07-23T12:38:01;1.42;;;1.00;;
13855;SDS011;6998;53.608;9.958;2022-07-23T12:40:30;1.63;;;0.80;;
13855;SDS011;6998;53.608;9.958;2022-07-23T12:42:58;2.17;;;0.90;;
13855;SDS011;6998;53.608;9.958;2022-07-23T12:45:27;1.80;;;0.98;;
13855;SDS011;6998;53.608;9.958;2022-07-23T12:47:56;1.10;;;0.80;;
13855;SDS011;6998;53.608;9.958;2022-07-23T12:50:42;1.60;;;0.80;;
13855;SDS011;6998;53.608;9.958;2022-07-23T12:53:12;1.42;;;0.80;;
13855;SDS011;6998;53.608;9.958;2022-07-23T12:55:42;1.27;;;0.80;;
13855;SDS011;6998;53.608;9.958;2022-07-23T12:58:11;1.48;;;0.90;;
13855;SDS011;6998;53.608;9.958;2022-07-23T13:01:00;1.65;;;1.02;;
13855;SDS011;6998;53.608;9.958;2022-07-23T13:03:38;2.28;;;1.00;;
13855;SDS011;6998;53.608;9.958;2022-07-23T13:06:07;1.20;;;1.00;;
13855;SDS011;6998;53.608;9.958;2022-07-23T13:08:37;1.92;;;0.80;;
13855;SDS011;6998;53.608;9.958;2022-07-23T13:11:06;2.33;;;0.88;;
13855;SDS011;6998;53.608;9.958;2022-07-23T13:13:34;4.20;;;0.82;;
13855;SDS011;6998;53.608;9.958;2022-07-23T13:16:01;1.63;;;0.90;;
13855;SDS011;6998;53.608;9.958;2022-07-23T13:18:29;1.33;;;0.80;;
13855;SDS011;6998;53.608;9.958;2022-07-23T13:20:56;2.38;;;0.88;;
13855;SDS011;6998;53.608;9.958;2022-07-23T13:23:23;1.88;;;0.90;;
13855;SDS011;6998;53.608;9.958;2022-07-23T13:25:51;1.23;;;0.93;;
13855;SDS011;6998;53.608;9.958;2022-07-23T13:28:19;1.95;;;0.90;;
13855;SDS011;6998;53.608;9.958;2022-07-23T13:30:48;1.58;;;1.00;;
13855;SDS011;6998;53.608;9.958;2022-07-23T13:33:16;1.13;;;0.70;;
13855;SDS011;6998;53.608;9.958;2022-07-23T13:35:44;1.73;;;0.82;;
13855;SDS011;6998;53.608;9.958;2022-07-23T13:38:11;2.50;;;1.00;;
13855;SDS011;6998;53.608;9.958;2022-07-23T13:40:38;1.25;;;0.85;;
13855;SDS011;6998;53.608;9.958;2022-07-23T13:43:08;1.63;;;0.82;;
13855;SDS011;6998;53.608;9.958;2022-07-23T13:45:36;2.72;;;1.00;;
13855;SDS011;6998;53.608;9.958;2022-07-23T13:48:07;1.70;;;0.88;;
13855;SDS011;6998;53.608;9.958;2022-07-23T13:50:35;1.83;;;0.80;;
13855;SDS011;6998;53.608;9.958;2022-07-23T13:53:02;2.03;;;1.20;;
13855;SDS011;6998;53.608;9.958;2022-07-23T13:55:30;2.97;;;1.15;;
13855;SDS011;6998;53.608;9.958;2022-07-23T13:57:58;3.25;;;1.10;;
13855;SDS011;6998;53.608;9.958;2022-07-23T14:00:27;2.25;;;1.20;;
13855;SDS011;6998;53.608;9.958;2022-07-23T14:02:55;2.15;;;1.10;;
13855;SDS011;6998;53.608;9.958;2022-07-23T14:05:22;3.65;;;1.30;;
13855;SDS011;6998;53.608;9.958;2022-07-23T14:07:50;1.67;;;0.82;;
13855;SDS011;6998;53.608;9.958;2022-07-23T14:10:18;2.42;;;0.88;;
13855;SDS011;6998;53.608;9.958;2022-07-23T14:12:47;2.83;;;1.05;;
13855;SDS011;6998;53.608;9.958;2022-07-23T14:15:15;3.85;;;0.80;;
13855;SDS011;6998;53.608;9.958;2022-07-23T14:17:44;2.42;;;1.10;;
13855;SDS011;6998;53.608;9.958;2022-07-23T14:20:12;2.13;;;1.13;;
13855;SDS011;6998;53.608;9.958;2022-07-23T14:22:39;3.17;;;1.10;;
13855;SDS011;6998;53.608;9.958;2022-07-23T14:25:07;2.47;;;1.65;;
13855;SDS011;6998;53.608;9.958;2022-07-23T14:27:35;2.75;;;1.38;;
13855;SDS011;6998;53.608;9.958;2022-07-23T14:30:03;1.90;;;1.20;;
13855;SDS011;6998;53.608;9.958;2022-07-23T14:32:30;1.73;;;0.90;;
13855;SDS011;6998;53.608;9.958;2022-07-23T14:34:58;2.67;;;0.90;;
13855;SDS011;6998;53.608;9.958;2022-07-23T14:37:25;2.65;;;1.08;;
13855;SDS011;6998;53.608;9.958;2022-07-23T14:39:52;4.00;;;1.08;;
13855;SDS011;6998;53.608;9.958;2022-07-23T14:42:18;2.08;;;1.58;;
13855;SDS011;6998;53.608;9.958;2022-07-23T14:44:45;2.00;;;1.20;;
13855;SDS011;6998;53.608;9.958;2022-07-23T14:47:12;2.03;;;0.90;;
13855;SDS011;6998;53.608;9.958;2022-07-23T14:49:39;2.33;;;1.40;;
13855;SDS011;6998;53.608;9.958;2022-07-23T14:52:07;3.30;;;2.50;;
13855;SDS011;6998;53.608;9.958;2022-07-23T14:54:34;4.10;;;2.17;;
13855;SDS011;6998;53.608;9.958;2022-07-23T14:57:01;3.25;;;2.10;;
13855;SDS011;6998;53.608;9.958;2022-07-23T14:59:29;3.47;;;2.05;;
13855;SDS011;6998;53.608;9.958;2022-07-23T15:01:56;1.48;;;1.02;;
13855;SDS011;6998;53.608;9.958;2022-07-23T15:04:23;2.15;;;1.33;;
13855;SDS011;6998;53.608;9.958;2022-07-23T15:06:50;1.77;;;1.15;;
13855;SDS011;6998;53.608;9.958;2022-07-23T15:09:18;2.35;;;1.25;;
13855;SDS011;6998;53.608;9.958;2022-07-23T15:11:45;2.13;;;1.30;;